Time;durP1;ratioP1;P1;durP2;ratioP2;P2;SDS_P1;SDS_P2;PMS_P1;PMS_P2;Temp;Humidity;BMP_temperature;BMP_pressure;BME280_temperature;BME280_humidity;BME280_pressure;Samples;Min_cycle;Max_cycle;Signal;HPM_P1;HPM_P2
2022/03/23 00:01:59;;;;;;;22.50;17.50;;;6.10;99.90;;;;;;5024211;28;20179;-65
2022/03/23 00:04:25;;;;;;;21.67;18.27;;;6.00;99.90;;;;;;5025310;28;20180;-62
2022/03/23 00:06:51;;;;;;;22.90;17.50;;;5.90;99.90;;;;;;5012139;28;20179;-65
2022/03/23 00:09:16;;;;;;;19.13;17.03;;;5.90;99.90;;;;;;5017469;28;20203;-65
2022/03/23 00:11:42;;;;;;;20.07;17.63;;;5.80;99.90;;;;;;5032298;28;20577;-65
2022/03/23 00:14:09;;;;;;;22.50;18.00;;;5.80;99.90;;;;;;5028477;28;20240;-66
2022/03/23 00:16:36;;;;;;;20.93;18.00;;;5.80;99.90;;;;;;5025502;28;20702;-68
2022/03/23 00:19:06;;;;;;;25.10;19.07;;;5.70;99.90;;;;;;5030289;28;20201;-65
2022/03/23 00:21:32;;;;;;;21.37;17.60;;;5.70;99.90;;;;;;5032011;28;20171;-64
2022/03/23 00:23:57;;;;;;;25.03;17.90;;;5.70;99.90;;;;;;5028190;28;20181;-65
2022/03/23 00:26:23;;;;;;;23.47;17.70;;;5.70;99.90;;;;;;5012252;28;20251;-65
2022/03/23 00:28:49;;;;;;;23.73;18.70;;;5.70;99.90;;;;;;5013809;28;20200;-64
2022/03/23 00:31:15;;;;;;;22.43;17.50;;;5.70;99.90;;;;;;5032103;28;20222;-64
2022/03/23 00:33:40;;;;;;;23.40;18.20;;;5.60;99.90;;;;;;5031319;28;20219;-64
2022/03/23 00:36:09;;;;;;;21.97;18.93;;;5.60;99.90;;;;;;5011868;28;20262;-64
2022/03/23 00:38:35;;;;;;;23.73;17.33;;;5.60;99.90;;;;;;5012327;28;20188;-64
2022/03/23 00:41:03;;;;;;;22.00;17.63;;;5.60;99.90;;;;;;5030822;28;20176;-64
2022/03/23 00:43:29;;;;;;;22.33;18.53;;;5.70;99.90;;;;;;5027282;28;20183;-64
2022/03/23 00:45:55;;;;;;;21.93;18.30;;;5.80;99.90;;;;;;5011905;28;20180;-64
2022/03/23 00:48:20;;;;;;;20.10;17.13;;;5.90;99.90;;;;;;5027016;28;20207;-63
2022/03/23 00:50:46;;;;;;;25.13;18.23;;;5.90;99.90;;;;;;5016447;28;20190;-66
2022/03/23 00:53:13;;;;;;;21.97;17.67;;;5.90;99.90;;;;;;5025526;28;20703;-66
2022/03/23 00:55:41;;;;;;;29.27;18.27;;;5.90;99.90;;;;;;5031470;28;20222;-65
2022/03/23 00:58:07;;;;;;;20.20;16.50;;;5.80;99.90;;;;;;5019287;28;20607;-65
2022/03/23 01:00:33;;;;;;;24.47;18.27;;;5.80;99.90;;;;;;5011682;28;20191;-64
2022/03/23 01:02:58;;;;;;;19.67;16.93;;;5.80;99.90;;;;;;5022499;28;20175;-64
2022/03/23 01:05:25;;;;;;;22.80;18.73;;;5.70;99.90;;;;;;5031399;28;20812;-66
2022/03/23 01:07:51;;;;;;;21.37;17.23;;;5.70;99.90;;;;;;5022268;28;20218;-66
2022/03/23 01:10:17;;;;;;;23.13;18.07;;;5.70;99.90;;;;;;5012228;28;20204;-64
2022/03/23 01:12:44;;;;;;;21.70;18.20;;;5.60;99.90;;;;;;5012966;28;20216;-64
2022/03/23 01:15:11;;;;;;;21.20;17.63;;;5.60;99.90;;;;;;5011491;28;20294;-64
2022/03/23 01:17:38;;;;;;;26.63;18.47;;;5.60;99.90;;;;;;5017666;28;20650;-63
2022/03/23 01:20:10;;;;;;;23.13;17.20;;;5.60;99.90;;;;;;5031745;28;20639;-63
2022/03/23 01:22:37;;;;;;;22.27;18.60;;;5.60;99.90;;;;;;5026001;28;20255;-65
2022/03/23 01:25:08;;;;;;;21.73;18.10;;;5.60;99.90;;;;;;5011498;28;20191;-65
2022/03/23 01:27:34;;;;;;;22.90;17.67;;;5.50;99.90;;;;;;5016127;28;20207;-64
2022/03/23 01:29:59;;;;;;;21.83;17.13;;;5.50;99.90;;;;;;5031431;28;20696;-65
2022/03/23 01:32:25;;;;;;;22.27;18.03;;;5.50;99.90;;;;;;5028417;28;20267;-66
2022/03/23 01:34:51;;;;;;;19.70;17.37;;;5.50;99.90;;;;;;5011156;28;20612;-65
2022/03/23 01:37:16;;;;;;;24.30;18.87;;;5.60;99.90;;;;;;5012662;28;20172;-65
2022/03/23 01:39:42;;;;;;;23.27;17.77;;;5.60;99.90;;;;;;5015139;28;20204;-65
2022/03/23 01:42:08;;;;;;;22.90;17.73;;;5.60;99.90;;;;;;5039728;28;20221;-64
2022/03/23 01:44:34;;;;;;;30.17;18.10;;;5.50;99.90;;;;;;5028538;28;20203;-65
2022/03/23 01:47:12;;;;;;;22.83;18.43;;;5.50;99.90;;;;;;5023649;28;20643;-64
2022/03/23 01:49:49;;;;;;;20.80;18.53;;;5.50;99.90;;;;;;5026021;28;20216;-65
2022/03/23 01:52:18;;;;;;;21.23;18.90;;;5.40;99.90;;;;;;5030881;28;20202;-65
2022/03/23 01:54:44;;;;;;;23.73;17.30;;;5.30;99.90;;;;;;5015492;28;20195;-64
2022/03/23 01:57:13;;;;;;;24.30;19.27;;;5.30;99.90;;;;;;5011440;28;20172;-65
2022/03/23 01:59:39;;;;;;;24.07;18.70;;;5.20;99.90;;;;;;5025403;28;20246;-65
2022/03/23 02:02:06;;;;;;;22.70;17.53;;;5.20;99.90;;;;;;5034862;28;20176;-65
2022/03/23 02:04:33;;;;;;;23.33;20.63;;;5.10;99.90;;;;;;5021863;28;20184;-66
2022/03/23 02:06:58;;;;;;;27.53;19.83;;;5.00;99.90;;;;;;5015137;28;20168;-65
2022/03/23 02:09:26;;;;;;;23.57;19.27;;;5.00;99.90;;;;;;5014440;28;20205;-66
2022/03/23 02:11:53;;;;;;;24.17;19.90;;;4.90;99.90;;;;;;5014758;28;20632;-66
2022/03/23 02:14:20;;;;;;;26.97;18.97;;;4.90;99.90;;;;;;5024065;28;20211;-66
2022/03/23 02:16:48;;;;;;;25.57;18.33;;;4.90;99.90;;;;;;5034059;28;20179;-66
2022/03/23 02:19:14;;;;;;;26.37;18.20;;;4.80;99.90;;;;;;5025859;28;20291;-66
2022/03/23 02:21:47;;;;;;;21.63;18.20;;;4.70;99.90;;;;;;5014737;28;20624;-66
2022/03/23 02:24:14;;;;;;;22.00;18.83;;;4.70;99.90;;;;;;5021792;28;20184;-64
2022/03/23 02:26:41;;;;;;;23.70;18.10;;;4.70;99.90;;;;;;5033736;28;20186;-65
2022/03/23 02:29:07;;;;;;;23.77;18.40;;;4.60;99.90;;;;;;5027591;28;20215;-66
2022/03/23 02:31:34;;;;;;;25.90;19.83;;;4.60;99.90;;;;;;5014230;28;20168;-65
2022/03/23 02:34:00;;;;;;;24.83;18.47;;;4.50;99.90;;;;;;5015288;28;20537;-66
2022/03/23 02:36:25;;;;;;;26.90;18.97;;;4.50;99.90;;;;;;5014204;28;20172;-65
2022/03/23 02:38:51;;;;;;;25.03;18.57;;;4.50;99.90;;;;;;5017745;28;20201;-64
2022/03/23 02:41:18;;;;;;;23.63;18.63;;;4.50;99.90;;;;;;5033337;28;20203;-66
2022/03/23 02:43:44;;;;;;;28.27;17.97;;;4.50;99.90;;;;;;5015463;28;20172;-65
2022/03/23 02:46:18;;;;;;;20.77;17.60;;;4.50;99.90;;;;;;5033829;28;20179;-63
2022/03/23 02:48:44;;;;;;;19.63;16.83;;;4.60;99.90;;;;;;5014080;28;20206;-65
2022/03/23 02:51:10;;;;;;;25.53;19.23;;;4.60;99.90;;;;;;5014183;28;20207;-65
2022/03/23 03:02:36;;;;;;;23.70;19.10;;;4.80;99.90;;;;;;5015357;28;20194;-64
2022/03/23 03:05:06;;;;;;;24.00;18.03;;;4.90;99.90;;;;;;5013461;28;20176;-66
2022/03/23 03:08:44;;;;;;;23.20;18.43;;;5.00;99.90;;;;;;5015047;28;20284;-64
2022/03/23 03:10:20;;;;;;;24.90;18.67;;;5.10;99.90;;;;;;5013308;28;20184;-66
2022/03/23 03:12:46;;;;;;;22.50;18.67;;;5.20;99.90;;;;;;5022848;28;20269;-66
2022/03/23 03:15:13;;;;;;;21.37;18.37;;;5.30;99.90;;;;;;5033209;28;20203;-65
2022/03/23 03:17:38;;;;;;;24.37;20.20;;;5.30;99.90;;;;;;5025131;28;20226;-65
2022/03/23 03:20:06;;;;;;;27.83;18.87;;;5.30;99.90;;;;;;5013580;28;20176;-64
2022/03/23 03:22:38;;;;;;;21.50;18.20;;;5.30;99.90;;;;;;5019688;28;20175;-64
2022/03/23 03:25:03;;;;;;;22.63;18.20;;;5.30;99.90;;;;;;5033496;28;20164;-65
2022/03/23 03:27:35;;;;;;;23.10;18.23;;;5.20;99.90;;;;;;5027354;28;20659;-64
2022/03/23 03:30:04;;;;;;;19.67;17.53;;;5.10;99.90;;;;;;5013366;28;20227;-64
2022/03/23 03:32:30;;;;;;;28.13;18.53;;;5.10;99.90;;;;;;5018491;28;20211;-66
2022/03/23 03:34:57;;;;;;;20.67;16.90;;;5.00;99.90;;;;;;5031054;28;20234;-64
2022/03/23 03:37:23;;;;;;;20.90;17.77;;;4.90;99.90;;;;;;5013190;28;20169;-64
2022/03/23 03:39:49;;;;;;;21.47;17.73;;;5.00;99.90;;;;;;5013008;28;20607;-65
2022/03/23 03:42:14;;;;;;;19.97;16.93;;;4.90;99.90;;;;;;5012916;28;20230;-64
2022/03/23 03:44:40;;;;;;;24.30;17.80;;;4.90;99.90;;;;;;5012687;28;20168;-66
2022/03/23 03:47:06;;;;;;;24.60;18.17;;;4.80;99.90;;;;;;5029488;28;20297;-66
2022/03/23 03:49:32;;;;;;;21.17;18.90;;;4.80;99.90;;;;;;5031521;28;20671;-65
2022/03/23 03:51:58;;;;;;;19.17;17.17;;;4.80;99.90;;;;;;5027985;28;20188;-65
2022/03/23 03:54:24;;;;;;;21.67;17.63;;;4.70;99.90;;;;;;5032800;28;20199;-65
2022/03/23 03:56:49;;;;;;;29.73;20.87;;;4.60;99.90;;;;;;5018614;28;20666;-64
2022/03/23 03:59:15;;;;;;;21.73;18.47;;;4.60;99.90;;;;;;5012615;28;20188;-64
2022/03/23 04:01:41;;;;;;;20.60;17.87;;;4.50;99.90;;;;;;5387411;23;20460;-69
2022/03/23 04:04:07;;;;;;;21.23;17.73;;;4.50;99.90;;;;;;5033200;28;20618;-69
2022/03/23 04:06:33;;;;;;;23.77;18.40;;;4.40;99.90;;;;;;5033207;28;20585;-67
2022/03/23 04:08:58;;;;;;;24.90;18.37;;;4.50;99.90;;;;;;5033159;28;20203;-69
2022/03/23 04:11:24;;;;;;;23.80;18.43;;;4.50;99.90;;;;;;5033680;28;20195;-70
2022/03/23 04:13:50;;;;;;;22.00;17.50;;;4.50;99.90;;;;;;5032826;28;20314;-68
2022/03/23 04:16:15;;;;;;;26.87;18.80;;;4.50;99.90;;;;;;5032803;28;20290;-69
2022/03/23 04:18:41;;;;;;;22.83;18.27;;;4.50;99.90;;;;;;5031553;28;20266;-69
2022/03/23 04:21:07;;;;;;;28.03;18.87;;;4.50;99.90;;;;;;5033143;28;20579;-69
2022/03/23 04:23:33;;;;;;;20.77;18.17;;;4.60;99.90;;;;;;5032381;28;20183;-70
2022/03/23 04:25:59;;;;;;;21.50;18.23;;;4.50;99.90;;;;;;5031266;28;20259;-63
2022/03/23 04:28:25;;;;;;;19.97;17.97;;;4.50;99.90;;;;;;5032082;28;20258;-63
2022/03/23 04:30:50;;;;;;;26.20;19.00;;;4.50;99.90;;;;;;5031712;28;20195;-63
2022/03/23 04:33:16;;;;;;;24.63;19.63;;;4.50;99.90;;;;;;5031748;28;20550;-64
2022/03/23 04:35:42;;;;;;;23.60;18.70;;;4.40;99.90;;;;;;5031445;28;20202;-64
2022/03/23 04:38:08;;;;;;;23.30;18.73;;;4.40;99.90;;;;;;5031633;28;20188;-64
2022/03/23 04:40:33;;;;;;;24.37;18.80;;;4.40;99.90;;;;;;5031674;28;20563;-64
2022/03/23 04:42:59;;;;;;;26.37;19.30;;;4.40;99.90;;;;;;5031411;28;20266;-64
2022/03/23 04:45:25;;;;;;;22.83;19.07;;;4.40;99.90;;;;;;5031006;28;20187;-64
2022/03/23 04:47:51;;;;;;;25.43;18.37;;;4.40;99.90;;;;;;5031659;28;20173;-63
2022/03/23 04:50:17;;;;;;;21.80;19.43;;;4.40;99.90;;;;;;5031441;28;20203;-64
2022/03/23 04:52:45;;;;;;;23.37;18.93;;;4.40;99.90;;;;;;5031608;28;20184;-64
2022/03/23 04:55:12;;;;;;;23.20;19.03;;;4.40;99.90;;;;;;5030963;28;20210;-64
2022/03/23 04:57:39;;;;;;;21.57;19.20;;;4.40;99.90;;;;;;5031678;28;20175;-64
2022/03/23 05:00:15;;;;;;;26.10;18.70;;;4.40;99.90;;;;;;5031581;28;20646;-64
2022/03/23 05:02:42;;;;;;;21.00;18.70;;;4.40;99.90;;;;;;5031648;28;20179;-64
2022/03/23 05:05:13;;;;;;;27.13;18.37;;;4.40;99.90;;;;;;5030934;28;20179;-64
2022/03/23 05:07:39;;;;;;;22.57;18.80;;;4.40;99.90;;;;;;5031412;28;20546;-64
2022/03/23 05:10:07;;;;;;;21.70;17.73;;;4.40;99.90;;;;;;5030621;28;20203;-64
2022/03/23 05:12:32;;;;;;;21.23;18.03;;;4.30;99.90;;;;;;5030874;28;20654;-64
2022/03/23 05:14:58;;;;;;;28.90;17.83;;;4.40;99.90;;;;;;5030670;28;20261;-63
2022/03/23 05:17:23;;;;;;;25.77;18.07;;;4.40;99.90;;;;;;5031507;28;20550;-64
2022/03/23 05:19:49;;;;;;;25.60;18.63;;;4.40;99.90;;;;;;5031053;28;20180;-64
2022/03/23 05:22:15;;;;;;;24.00;19.23;;;4.40;99.90;;;;;;5031393;28;20542;-64
2022/03/23 05:24:41;;;;;;;20.93;17.30;;;4.50;99.90;;;;;;5030785;28;20191;-64
2022/03/23 05:27:09;;;;;;;22.70;17.83;;;4.60;99.90;;;;;;5031147;28;20184;-64
2022/03/23 05:29:36;;;;;;;21.97;17.57;;;4.60;99.90;;;;;;5031123;28;20171;-64
2022/03/23 05:32:02;;;;;;;23.00;17.77;;;4.60;99.90;;;;;;5031183;28;20171;-64
2022/03/23 05:34:27;;;;;;;23.93;17.97;;;4.60;99.90;;;;;;5013443;28;20269;-63
2022/03/23 05:36:53;;;;;;;21.17;16.97;;;4.60;99.90;;;;;;5015196;28;20703;-63
2022/03/23 05:39:19;;;;;;;22.33;18.37;;;4.70;99.90;;;;;;5033838;28;20182;-63
2022/03/23 05:41:45;;;;;;;19.47;16.53;;;4.70;99.90;;;;;;5034949;28;20238;-64
2022/03/23 05:44:11;;;;;;;27.37;18.53;;;4.70;99.90;;;;;;5035079;28;20280;-63
2022/03/23 05:46:36;;;;;;;23.07;17.07;;;4.80;99.90;;;;;;5034884;28;20172;-64
2022/03/23 05:49:03;;;;;;;20.50;17.30;;;4.80;99.90;;;;;;5034740;28;20318;-64
2022/03/23 05:51:29;;;;;;;21.33;18.40;;;4.70;99.90;;;;;;5035212;28;20705;-63
2022/03/23 05:53:54;;;;;;;22.00;19.37;;;4.70;99.90;;;;;;5034400;28;20175;-63
2022/03/23 05:56:20;;;;;;;23.07;18.53;;;4.60;99.90;;;;;;5034623;28;20751;-63
2022/03/23 05:58:46;;;;;;;22.00;17.47;;;4.60;99.90;;;;;;5034474;28;20175;-64
2022/03/23 06:01:11;;;;;;;19.40;17.40;;;4.60;99.90;;;;;;5033202;28;20216;-63
2022/03/23 06:03:37;;;;;;;22.40;17.67;;;4.60;99.90;;;;;;5034217;28;20179;-63
2022/03/23 06:06:03;;;;;;;22.60;18.43;;;4.60;99.90;;;;;;5034497;28;20176;-63
2022/03/23 06:08:28;;;;;;;25.47;18.70;;;4.60;99.90;;;;;;5043291;28;20662;-63
2022/03/23 06:10:54;;;;;;;21.23;18.53;;;4.60;99.90;;;;;;5046500;28;20642;-63
2022/03/23 06:13:20;;;;;;;20.57;17.67;;;4.60;99.90;;;;;;5043238;28;20641;-63
2022/03/23 06:15:46;;;;;;;21.47;18.90;;;4.60;99.90;;;;;;5034421;28;20207;-63
2022/03/23 06:18:12;;;;;;;22.90;17.90;;;4.70;99.90;;;;;;5034486;28;20172;-63
2022/03/23 06:20:38;;;;;;;28.33;19.87;;;4.70;99.90;;;;;;5034210;28;20693;-63
2022/03/23 06:23:04;;;;;;;23.13;19.53;;;4.70;99.90;;;;;;5034036;28;20183;-63
2022/03/23 06:25:30;;;;;;;21.43;19.23;;;4.80;99.90;;;;;;5034027;28;20179;-63
2022/03/23 06:27:56;;;;;;;24.30;18.80;;;4.80;99.90;;;;;;5034091;28;20175;-63
2022/03/23 06:30:21;;;;;;;21.10;18.00;;;4.80;99.90;;;;;;5034052;28;20191;-63
2022/03/23 06:32:47;;;;;;;21.70;18.83;;;4.80;99.90;;;;;;5033832;28;20184;-63
2022/03/23 06:35:13;;;;;;;25.97;19.00;;;4.90;99.90;;;;;;5033549;28;20214;-63
2022/03/23 06:37:39;;;;;;;22.30;19.40;;;4.90;99.90;;;;;;5033856;28;20176;-63
2022/03/23 06:40:05;;;;;;;21.23;17.60;;;5.10;99.90;;;;;;5033919;28;20192;-63
2022/03/23 06:42:31;;;;;;;22.10;19.13;;;5.10;99.90;;;;;;5033553;28;20179;-63
2022/03/23 06:44:57;;;;;;;26.40;18.43;;;5.20;99.90;;;;;;5033234;28;20191;-63
2022/03/23 06:47:22;;;;;;;24.63;18.67;;;5.30;99.90;;;;;;5033554;28;20706;-62
2022/03/23 06:49:48;;;;;;;21.40;19.00;;;5.40;99.90;;;;;;5033241;28;20167;-63
2022/03/23 06:52:15;;;;;;;19.90;17.90;;;5.50;99.90;;;;;;5033768;28;20267;-63
2022/03/23 06:54:41;;;;;;;22.80;18.43;;;5.70;99.90;;;;;;5026887;28;20257;-63
2022/03/23 06:57:07;;;;;;;20.50;18.23;;;6.00;99.90;;;;;;5033366;28;20171;-63
2022/03/23 06:59:32;;;;;;;22.00;17.00;;;6.50;99.90;;;;;;5033070;28;20174;-63
2022/03/23 07:01:58;;;;;;;19.73;17.57;;;7.10;99.90;;;;;;5033319;28;20199;-63
2022/03/23 07:04:24;;;;;;;21.07;17.40;;;7.60;99.90;;;;;;5033263;28;20176;-63
2022/03/23 07:06:51;;;;;;;20.37;16.20;;;8.20;99.90;;;;;;5032963;28;20191;-63
2022/03/23 07:09:32;;;;;;;18.23;16.33;;;8.70;99.90;;;;;;5032937;28;20198;-63
2022/03/23 07:12:05;;;;;;;24.03;16.40;;;9.10;99.90;;;;;;5033350;28;20175;-63
2022/03/23 07:14:32;;;;;;;20.23;16.97;;;9.60;99.90;;;;;;5032342;28;20535;-63
2022/03/23 07:16:58;;;;;;;19.30;16.87;;;9.90;99.90;;;;;;5032974;28;20214;-63
2022/03/23 07:19:24;;;;;;;20.60;16.47;;;10.10;99.90;;;;;;5032856;28;20233;-63
2022/03/23 07:21:50;;;;;;;17.83;15.97;;;10.30;99.90;;;;;;5032755;28;20644;-63
2022/03/23 07:24:16;;;;;;;21.60;16.47;;;10.50;99.90;;;;;;5032816;28;20187;-63
2022/03/23 07:26:42;;;;;;;19.47;16.50;;;10.70;99.90;;;;;;5032797;28;20200;-63
2022/03/23 07:29:08;;;;;;;20.07;15.13;;;10.80;99.90;;;;;;5032780;28;20203;-63
2022/03/23 07:31:34;;;;;;;19.10;16.67;;;10.90;99.90;;;;;;5033110;28;20191;-63
2022/03/23 07:34:02;;;;;;;18.10;16.20;;;11.00;99.90;;;;;;5032606;28;20539;-64
2022/03/23 07:36:28;;;;;;;18.23;16.07;;;11.00;99.90;;;;;;5031362;28;20275;-63
2022/03/23 07:38:54;;;;;;;20.93;16.63;;;11.10;99.90;;;;;;5032402;28;20246;-63
2022/03/23 07:41:20;;;;;;;17.87;15.97;;;11.30;99.90;;;;;;5033233;28;20620;-64
2022/03/23 07:43:46;;;;;;;20.27;16.80;;;11.60;99.90;;;;;;5032406;28;20645;-63
2022/03/23 07:46:12;;;;;;;19.93;16.10;;;11.70;99.90;;;;;;5032401;28;20179;-64
2022/03/23 07:48:38;;;;;;;17.53;15.47;;;12.00;99.90;;;;;;5032268;28;20596;-63
2022/03/23 07:51:04;;;;;;;19.57;16.30;;;12.20;99.90;;;;;;5032280;28;20234;-64
2022/03/23 07:53:30;;;;;;;16.83;15.03;;;12.40;99.90;;;;;;5030719;28;20186;-64
2022/03/23 07:55:55;;;;;;;20.30;16.57;;;12.60;99.90;;;;;;5030363;28;20584;-64
2022/03/23 07:58:22;;;;;;;18.77;16.33;;;12.70;99.90;;;;;;5031253;28;20458;-64
2022/03/23 08:00:47;;;;;;;20.93;17.47;;;12.70;99.90;;;;;;5032059;28;20203;-63
2022/03/23 08:03:13;;;;;;;21.90;16.70;;;12.80;99.90;;;;;;5032192;28;20174;-64
2022/03/23 08:05:42;;;;;;;19.30;16.37;;;13.10;99.90;;;;;;5031761;28;20171;-64
2022/03/23 08:08:09;;;;;;;20.13;16.63;;;13.40;99.90;;;;;;5031793;28;20638;-63
2022/03/23 08:10:36;;;;;;;20.77;15.27;;;13.70;99.90;;;;;;5031007;28;20697;-64
2022/03/23 08:13:02;;;;;;;19.63;15.80;;;14.10;99.90;;;;;;5031830;28;20183;-63
2022/03/23 08:15:31;;;;;;;18.97;15.83;;;14.30;99.90;;;;;;5031924;28;20455;-64
2022/03/23 08:17:58;;;;;;;20.13;16.90;;;14.50;99.90;;;;;;5031175;28;20559;-63
2022/03/23 08:20:33;;;;;;;19.33;16.37;;;14.70;99.90;;;;;;5032188;28;20202;-63
2022/03/23 08:23:00;;;;;;;21.40;16.73;;;14.90;99.90;;;;;;5031845;28;20198;-64
2022/03/23 08:25:26;;;;;;;19.10;16.20;;;15.30;99.90;;;;;;5031270;28;20183;-64
2022/03/23 08:27:51;;;;;;;20.23;16.87;;;15.70;99.90;;;;;;5031526;28;20186;-64
2022/03/23 08:30:17;;;;;;;22.53;17.20;;;16.00;99.90;;;;;;5030611;28;20257;-64
2022/03/23 08:32:43;;;;;;;19.23;16.77;;;16.40;99.90;;;;;;5031735;28;20553;-64
2022/03/23 08:35:08;;;;;;;18.30;15.57;;;16.70;99.90;;;;;;5030507;28;20261;-64
2022/03/23 08:37:34;;;;;;;21.10;17.07;;;17.10;99.90;;;;;;5031601;28;20178;-64
2022/03/23 08:40:00;;;;;;;19.92;16.92;;;17.60;99.90;;;;;;5031408;28;20276;-64
2022/03/23 08:42:25;;;;;;;19.13;16.77;;;17.80;99.90;;;;;;5031768;28;20182;-64
2022/03/23 08:44:52;;;;;;;20.55;16.70;;;18.00;99.90;;;;;;5030954;28;20191;-64
2022/03/23 08:47:17;;;;;;;20.40;17.43;;;18.20;99.20;;;;;;5031612;28;20182;-64
2022/03/23 08:49:44;;;;;;;19.63;15.48;;;18.30;99.10;;;;;;5031131;28;20258;-64
2022/03/23 08:52:09;;;;;;;23.17;18.05;;;18.60;98.90;;;;;;5031471;28;20176;-64
2022/03/23 08:54:35;;;;;;;19.80;16.83;;;18.70;96.30;;;;;;5030663;28;20209;-64
2022/03/23 08:57:01;;;;;;;20.25;15.95;;;19.00;96.60;;;;;;5031497;28;20176;-64
2022/03/23 08:59:27;;;;;;;19.70;17.13;;;19.40;95.30;;;;;;5031294;28;20598;-64
2022/03/23 09:01:53;;;;;;;21.13;16.48;;;19.60;95.10;;;;;;5030765;28;20247;-64
2022/03/23 09:04:18;;;;;;;22.80;17.00;;;19.70;93.70;;;;;;5031350;28;20172;-64
2022/03/23 09:06:44;;;;;;;21.20;16.80;;;19.90;94.00;;;;;;5030814;28;20699;-64
2022/03/23 09:09:10;;;;;;;19.17;16.13;;;20.20;93.40;;;;;;5033815;28;20175;-64
2022/03/23 09:11:36;;;;;;;17.80;15.20;;;20.50;92.80;;;;;;5037554;28;20195;-64
2022/03/23 09:14:01;;;;;;;20.40;17.05;;;20.70;91.10;;;;;;5037513;28;20183;-64
2022/03/23 09:16:27;;;;;;;22.10;17.17;;;20.60;89.40;;;;;;5037330;28;20203;-64
2022/03/23 09:18:53;;;;;;;19.77;17.52;;;20.60;87.80;;;;;;5037269;28;20186;-63
2022/03/23 09:21:20;;;;;;;19.33;16.90;;;20.60;88.50;;;;;;5037942;28;20666;-63
2022/03/23 09:23:46;;;;;;;21.85;15.75;;;20.80;88.80;;;;;;5037527;28;20186;-63
2022/03/23 09:26:11;;;;;;;21.25;16.55;;;21.20;89.10;;;;;;5037613;28;20546;-63
2022/03/23 09:28:38;;;;;;;22.25;16.92;;;21.40;85.30;;;;;;5037499;28;20266;-64
2022/03/23 09:31:04;;;;;;;22.30;16.80;;;21.60;84.60;;;;;;5037906;28;20195;-63
2022/03/23 09:33:30;;;;;;;20.60;17.33;;;21.80;82.90;;;;;;5048630;28;20177;-63
2022/03/23 09:35:56;;;;;;;18.70;16.70;;;22.00;80.70;;;;;;5052513;28;20214;-63
2022/03/23 09:38:22;;;;;;;21.42;16.20;;;22.20;83.20;;;;;;5053364;28;20232;-63
2022/03/23 09:40:51;;;;;;;24.33;16.95;;;22.40;80.50;;;;;;5041646;28;20202;-63
2022/03/23 09:43:21;;;;;;;18.70;16.05;;;22.50;81.50;;;;;;5037864;28;20190;-63
2022/03/23 09:45:47;;;;;;;21.63;17.63;;;22.90;82.80;;;;;;5037737;28;20288;-64
2022/03/23 09:48:21;;;;;;;19.52;16.92;;;23.30;78.90;;;;;;5037618;28;20207;-64
2022/03/23 09:50:51;;;;;;;22.15;17.90;;;23.70;77.30;;;;;;5037145;28;20280;-64
2022/03/23 09:53:17;;;;;;;21.40;17.75;;;23.90;76.30;;;;;;5036862;28;20205;-64
2022/03/23 09:55:46;;;;;;;20.17;17.05;;;24.10;72.60;;;;;;5036801;28;20607;-64
2022/03/23 09:58:12;;;;;;;19.42;17.00;;;24.20;74.20;;;;;;5036560;28;20260;-64
2022/03/23 10:03:11;;;;;;;23.60;17.63;;;24.20;74.80;;;;;;5035654;28;20207;-67
2022/03/23 10:06:02;;;;;;;20.80;17.48;;;24.50;74.60;;;;;;5035595;28;20650;-67
2022/03/23 10:08:59;;;;;;;23.20;17.85;;;24.60;73.30;;;;;;5025259;28;20223;-66
2022/03/23 10:12:01;;;;;;;21.30;17.73;;;24.70;70.40;;;;;;5037096;28;20252;-67
2022/03/23 10:14:46;;;;;;;21.42;17.75;;;24.00;66.00;;;;;;5036957;28;20194;-67
2022/03/23 10:17:33;;;;;;;24.60;17.70;;;23.50;64.90;;;;;;5036780;28;20490;-66
2022/03/23 10:19:59;;;;;;;22.90;17.88;;;23.30;67.30;;;;;;5034731;28;20175;-67
2022/03/23 10:22:29;;;;;;;22.45;17.80;;;23.90;70.00;;;;;;5033671;28;20194;-67
2022/03/23 10:24:55;;;;;;;25.17;18.42;;;24.40;69.40;;;;;;5033596;28;20176;-67
2022/03/23 10:27:23;;;;;;;26.33;18.05;;;24.60;63.40;;;;;;5033830;28;20186;-66
2022/03/23 10:29:53;;;;;;;21.65;17.65;;;24.70;63.70;;;;;;5033918;28;20245;-68
2022/03/23 10:32:23;;;;;;;24.20;17.45;;;24.70;62.50;;;;;;5032169;28;20701;-67
2022/03/23 10:34:50;;;;;;;21.15;17.40;;;24.70;61.20;;;;;;5033372;28;20294;-67
2022/03/23 10:37:36;;;;;;;21.55;18.42;;;24.80;58.50;;;;;;5033402;28;20176;-67
2022/03/23 10:40:08;;;;;;;24.45;18.95;;;24.80;60.50;;;;;;5033693;28;20183;-67
2022/03/23 10:42:37;;;;;;;24.45;18.13;;;24.90;58.50;;;;;;5033625;28;20191;-66
2022/03/23 10:45:20;;;;;;;22.48;18.67;;;25.10;57.80;;;;;;5033165;28;20175;-67
2022/03/23 10:47:46;;;;;;;22.52;18.23;;;25.10;58.70;;;;;;5033407;28;20179;-66
2022/03/23 10:50:23;;;;;;;23.95;18.30;;;25.30;58.40;;;;;;5048789;28;20654;-67
2022/03/23 10:53:07;;;;;;;25.40;18.88;;;25.70;58.60;;;;;;5033273;28;20187;-67
2022/03/23 10:55:38;;;;;;;22.73;18.45;;;26.00;57.90;;;;;;5032872;28;20256;-67
2022/03/23 10:58:04;;;;;;;24.27;18.08;;;26.50;57.00;;;;;;5033454;28;20184;-67
2022/03/23 11:00:38;;;;;;;23.55;19.75;;;26.80;57.10;;;;;;5033366;28;20171;-66
2022/03/23 11:03:06;;;;;;;21.30;18.98;;;27.00;56.20;;;;;;5031241;28;20195;-66
2022/03/23 11:05:35;;;;;;;20.98;17.67;;;26.90;52.50;;;;;;5032799;28;20176;-66
2022/03/23 11:08:11;;;;;;;21.88;18.33;;;26.80;54.60;;;;;;5032271;28;20168;-67
2022/03/23 11:16:33;;;;;;;21.73;19.38;;;26.40;51.00;;;;;;5032720;28;20226;-66
2022/03/23 11:19:20;;;;;;;24.60;18.73;;;26.10;50.90;;;;;;5032923;28;20167;-67
2022/03/23 11:22:12;;;;;;;24.65;19.55;;;25.90;50.90;;;;;;5032833;28;20195;-67
2022/03/23 11:24:47;;;;;;;22.38;18.45;;;25.50;48.40;;;;;;5032344;28;20176;-66
2022/03/23 11:27:18;;;;;;;22.05;18.70;;;25.30;48.00;;;;;;5032783;28;20637;-66
2022/03/23 11:29:44;;;;;;;23.77;17.60;;;25.50;51.80;;;;;;5032637;28;20179;-66
2022/03/23 11:32:15;;;;;;;22.55;18.48;;;25.60;47.80;;;;;;5028773;28;20593;-66
2022/03/23 11:34:48;;;;;;;19.48;16.52;;;25.60;48.60;;;;;;5019535;28;20200;-67
2022/03/23 11:37:15;;;;;;;19.60;17.20;;;25.70;45.40;;;;;;5012583;28;20175;-66
2022/03/23 11:39:41;;;;;;;20.70;18.02;;;25.90;44.90;;;;;;5031107;28;20183;-66
2022/03/23 11:42:07;;;;;;;25.15;17.83;;;25.90;46.40;;;;;;5031914;28;20199;-66
2022/03/23 11:44:36;;;;;;;24.42;18.70;;;26.00;45.70;;;;;;5031000;28;20179;-66
2022/03/23 11:47:11;;;;;;;22.98;17.52;;;26.20;44.30;;;;;;5029953;28;20172;-67
2022/03/23 11:49:48;;;;;;;22.88;17.77;;;26.30;45.10;;;;;;5032259;28;20174;-66
2022/03/23 11:52:30;;;;;;;23.13;18.10;;;26.50;47.20;;;;;;5014682;28;20196;-67
2022/03/23 11:58:04;;;;;;;22.70;19.27;;;27.00;43.10;;;;;;5012810;28;20202;-67
2022/03/23 12:00:41;;;;;;;20.50;18.33;;;27.00;43.30;;;;;;5014677;28;20218;-66
2022/03/23 12:03:07;;;;;;;24.30;20.42;;;26.80;46.10;;;;;;5032248;28;20180;-66
2022/03/23 12:05:35;;;;;;;24.27;17.70;;;26.70;44.50;;;;;;5015757;28;20180;-66
2022/03/23 12:08:04;;;;;;;21.75;16.88;;;26.40;41.60;;;;;;5030654;28;20217;-67
2022/03/23 12:10:32;;;;;;;23.23;17.10;;;26.00;40.20;;;;;;5031389;28;20211;-66
2022/03/23 12:13:16;;;;;;;19.88;16.75;;;25.40;41.20;;;;;;5031715;28;20676;-66
2022/03/23 12:15:58;;;;;;;22.95;16.20;;;25.10;42.10;;;;;;5030738;28;20199;-67
2022/03/23 12:18:40;;;;;;;22.60;16.67;;;25.20;42.40;;;;;;5029426;28;20242;-66
2022/03/23 12:21:10;;;;;;;24.27;17.92;;;24.90;41.70;;;;;;5011966;28;20196;-66
2022/03/23 12:23:57;;;;;;;23.10;17.60;;;24.80;42.80;;;;;;5014759;28;20171;-66
2022/03/23 12:26:34;;;;;;;25.77;17.63;;;24.70;43.10;;;;;;5031481;28;20179;-66
2022/03/23 12:29:12;;;;;;;20.60;18.00;;;24.90;42.60;;;;;;5023916;28;20206;-66
2022/03/23 12:31:39;;;;;;;20.63;17.05;;;25.00;43.10;;;;;;5011802;28;20571;-67
2022/03/23 12:34:26;;;;;;;23.63;17.30;;;25.20;42.00;;;;;;5018106;28;20253;-67
2022/03/23 12:36:59;;;;;;;21.58;17.45;;;25.50;42.80;;;;;;5016714;28;20179;-66
2022/03/23 12:39:44;;;;;;;22.73;18.13;;;25.50;41.00;;;;;;5019673;28;20172;-66
2022/03/23 12:42:13;;;;;;;20.60;16.65;;;25.30;41.50;;;;;;5029890;28;20286;-66
2022/03/23 12:44:41;;;;;;;24.63;17.63;;;24.80;40.60;;;;;;5030540;28;20202;-66
2022/03/23 12:47:12;;;;;;;21.48;17.38;;;24.60;40.80;;;;;;5029775;28;20179;-67
2022/03/23 12:58:24;;;;;;;21.90;17.55;;;25.10;38.40;;;;;;5023661;28;20238;-66
2022/03/23 13:00:51;;;;;;;24.15;16.50;;;25.10;38.90;;;;;;5026165;28;20221;-67
2022/03/23 13:03:19;;;;;;;20.70;17.73;;;24.60;38.20;;;;;;5011308;28;20255;-66
2022/03/23 13:05:57;;;;;;;28.02;17.55;;;24.40;39.20;;;;;;5028864;28;20171;-66
2022/03/23 13:08:33;;;;;;;27.60;19.27;;;24.00;42.20;;;;;;5031422;28;20258;-67